createdAt,value
2022-09-24T08:55:43.993Z,14.20
2022-09-24T08:58:11.685Z,14.30
2022-09-24T09:00:57.762Z,14.50
2022-09-24T09:03:34.191Z,14.70
2022-09-24T09:06:25.214Z,14.80
2022-09-24T09:09:10.075Z,14.90
2022-09-24T09:12:03.281Z,14.90
2022-09-24T09:14:31.535Z,14.70
2022-09-24T09:17:06.822Z,14.70
2022-09-24T09:19:34.703Z,14.70
2022-09-24T09:22:08.114Z,14.90
2022-09-24T09:24:50.574Z,15.20
2022-09-24T09:27:19.305Z,15.20
2022-09-24T09:29:49.171Z,15.10
2022-09-24T09:32:41.103Z,15.20
2022-09-24T09:35:23.007Z,15.30
2022-09-24T09:38:23.379Z,15.40
2022-09-24T09:41:06.700Z,15.50
2022-09-24T09:43:33.787Z,15.50
2022-09-24T09:46:26.133Z,15.50
2022-09-24T09:48:59.985Z,15.60
2022-09-24T09:51:27.039Z,15.90
2022-09-24T09:53:58.829Z,16.00
2022-09-24T09:56:30.962Z,16.00
2022-09-24T09:59:19.337Z,15.90
2022-09-24T10:01:48.337Z,16.00
2022-09-24T10:04:44.841Z,16.20
2022-09-24T10:07:19.717Z,16.10
2022-09-24T10:09:46.971Z,16.20
2022-09-24T10:12:17.818Z,16.00
2022-09-24T10:14:55.933Z,16.00
2022-09-24T10:17:27.159Z,15.60
2022-09-24T10:19:55.649Z,15.10
2022-09-24T10:22:27.040Z,15.30
2022-09-24T10:24:58.079Z,15.10
2022-09-24T10:27:38.060Z,15.20
2022-09-24T10:30:32.293Z,15.50
2022-09-24T10:33:01.608Z,15.90
2022-09-24T10:35:35.768Z,16.10
2022-09-24T10:38:14.686Z,16.20
2022-09-24T10:40:41.918Z,16.40
2022-09-24T10:43:20.766Z,16.50
2022-09-24T10:46:17.498Z,16.60
2022-09-24T10:49:03.053Z,16.70
2022-09-24T10:51:38.898Z,16.60
2022-09-24T10:54:27.369Z,16.60
2022-09-24T10:56:56.834Z,16.90
2022-09-24T10:59:45.241Z,17.00
2022-09-24T11:02:46.416Z,17.00
2022-09-24T11:05:20.614Z,16.90
2022-09-24T11:08:11.764Z,16.30
2022-09-24T11:10:54.054Z,16.00
2022-09-24T11:13:40.667Z,16.00
2022-09-24T11:16:45.138Z,15.70
2022-09-24T11:19:31.787Z,16.10
2022-09-24T11:22:13.787Z,16.50
2022-09-24T11:25:02.978Z,16.40
2022-09-24T11:27:35.675Z,16.40
2022-09-24T11:30:17.332Z,16.30
2022-09-24T11:33:22.866Z,16.50
2022-09-24T11:36:28.021Z,16.40
2022-09-24T11:39:15.861Z,16.70
2022-09-24T11:42:01.444Z,16.20
2022-09-24T11:45:05.777Z,16.50
2022-09-24T11:47:51.910Z,17.00
2022-09-24T11:50:47.959Z,16.70
2022-09-24T11:53:31.206Z,16.80
2022-09-24T11:56:13.086Z,16.70
2022-09-24T11:58:49.377Z,17.00
2022-09-24T12:01:29.609Z,17.20
2022-09-24T12:04:02.630Z,17.30
2022-09-24T12:06:43.085Z,17.30
2022-09-24T12:09:15.640Z,17.20
2022-09-24T12:11:50.267Z,17.20
2022-09-24T12:14:30.090Z,17.20
2022-09-24T12:17:06.522Z,17.20
2022-09-24T12:19:41.906Z,17.20
2022-09-24T12:22:10.633Z,17.20
2022-09-24T12:24:43.405Z,17.00
2022-09-24T12:27:22.499Z,16.40
2022-09-24T12:30:33.478Z,15.90
2022-09-24T12:33:37.771Z,15.80
2022-09-24T12:36:13.767Z,15.70
2022-09-24T12:38:42.696Z,16.10
2022-09-24T12:41:43.612Z,16.40
2022-09-24T12:44:10.460Z,16.80
2022-09-24T12:46:52.021Z,17.00
2022-09-24T12:49:26.220Z,17.20
2022-09-24T12:51:57.411Z,17.30
2022-09-24T12:54:30.735Z,17.60
2022-09-24T12:57:13.921Z,17.40
2022-09-24T12:59:55.998Z,17.60
2022-09-24T13:02:25.901Z,17.60
2022-09-24T13:05:02.443Z,17.50
2022-09-24T13:07:39.334Z,17.40
2022-09-24T13:10:18.997Z,17.50
2022-09-24T13:12:46.650Z,17.30
2022-09-24T13:15:40.689Z,17.20
2022-09-24T13:18:11.308Z,17.00
2022-09-24T13:20:40.510Z,16.80
2022-09-24T13:23:19.861Z,16.80
2022-09-24T13:26:03.822Z,17.00
2022-09-24T13:28:51.390Z,17.00
2022-09-24T13:31:22.973Z,17.10
2022-09-24T13:34:23.680Z,17.20
2022-09-24T13:37:03.759Z,17.20
2022-09-24T13:39:30.530Z,17.20
2022-09-24T13:42:18.132Z,17.30
2022-09-24T13:44:58.614Z,17.30
2022-09-24T13:47:30.957Z,17.20
2022-09-24T13:50:27.155Z,17.30
2022-09-24T13:52:56.779Z,17.30
2022-09-24T13:55:36.568Z,17.30
2022-09-24T13:58:03.545Z,17.20
2022-09-24T14:00:32.327Z,17.20
2022-09-24T14:03:26.916Z,17.30
2022-09-24T14:05:53.775Z,17.30
2022-09-24T14:08:24.408Z,17.30
2022-09-24T14:10:51.445Z,17.30
2022-09-24T14:13:21.959Z,17.20
2022-09-24T14:16:14.998Z,17.20
2022-09-24T14:18:42.450Z,17.20
2022-09-24T14:21:26.580Z,17.10
2022-09-24T14:24:01.707Z,16.90
2022-09-24T14:26:33.507Z,16.80
2022-09-24T14:29:05.452Z,16.90
2022-09-24T14:31:33.033Z,16.90
2022-09-24T14:34:04.697Z,17.00
2022-09-24T14:36:35.973Z,17.00
2022-09-24T14:39:05.323Z,16.90
2022-09-24T14:41:35.685Z,17.00
2022-09-24T14:44:13.301Z,17.00
2022-09-24T14:46:52.243Z,17.10
2022-09-24T14:49:23.411Z,17.10
2022-09-24T14:51:58.683Z,17.10
2022-09-24T14:54:40.243Z,17.00
2022-09-24T14:57:11.482Z,17.00
2022-09-24T14:59:39.725Z,17.10
2022-09-24T15:02:31.437Z,17.00
2022-09-24T15:05:06.182Z,17.00
2022-09-24T15:07:34.957Z,17.00
2022-09-24T15:10:04.638Z,17.10
2022-09-24T15:12:37.041Z,16.90
2022-09-24T15:15:19.545Z,16.80
2022-09-24T15:17:47.593Z,16.70
2022-09-24T15:20:14.670Z,16.60
2022-09-24T15:22:41.481Z,16.50
2022-09-24T15:25:08.908Z,16.50
2022-09-24T15:27:39.670Z,16.50
2022-09-24T15:30:10.994Z,16.50
2022-09-24T15:32:38.149Z,16.40
2022-09-24T15:35:09.646Z,16.40
2022-09-24T15:37:40.092Z,16.30
2022-09-24T15:40:22.579Z,16.30
2022-09-24T17:09:03.710Z,14.80
2022-09-24T17:11:40.543Z,14.80
2022-09-24T17:14:12.502Z,14.80
2022-09-24T17:16:40.893Z,14.80
2022-09-24T17:19:09.533Z,14.80
2022-09-24T17:21:38.639Z,14.70
2022-09-24T17:24:06.082Z,14.70
2022-09-24T17:26:33.319Z,14.70
2022-09-24T17:29:00.190Z,14.70
2022-09-24T17:31:27.392Z,14.60
2022-09-24T17:34:03.685Z,14.60
2022-09-24T17:36:32.925Z,14.60
2022-09-24T17:39:00.547Z,14.60
2022-09-24T17:41:31.668Z,14.60
2022-09-24T17:43:59.465Z,14.60
2022-09-24T17:46:28.667Z,14.60
2022-09-24T17:48:57.830Z,14.50
2022-09-24T17:51:39.431Z,14.50
2022-09-24T17:54:10.799Z,14.50
2022-09-24T17:56:40.777Z,14.40
2022-09-24T17:59:10.165Z,14.40
2022-09-24T18:01:38.382Z,14.40
2022-09-24T18:04:07.602Z,14.30
2022-09-24T18:06:37.548Z,14.30
2022-09-24T18:09:36.771Z,14.40
2022-09-24T18:12:03.594Z,14.30
2022-09-24T18:14:30.450Z,14.30
2022-09-24T18:16:57.540Z,14.20
2022-09-24T18:19:24.413Z,14.00
2022-09-24T18:21:51.198Z,13.90
2022-09-24T18:24:20.897Z,13.90
2022-09-24T18:26:51.534Z,13.90
2022-09-24T18:29:19.391Z,13.90
2022-09-24T18:31:46.215Z,13.90
2022-09-24T18:34:15.719Z,13.90
2022-09-24T18:36:44.109Z,14.00
2022-09-24T18:39:13.560Z,14.00
2022-09-24T18:41:42.138Z,14.10
2022-09-24T18:44:10.491Z,14.10
2022-09-24T18:46:37.534Z,14.00
2022-09-24T18:49:06.309Z,14.10
2022-09-24T18:51:35.757Z,14.00
2022-09-24T18:54:08.512Z,14.00
2022-09-24T18:56:36.362Z,14.00
2022-09-24T18:59:10.328Z,13.90
2022-09-24T19:01:38.886Z,13.90
2022-09-24T19:04:09.013Z,13.90
2022-09-24T19:06:36.563Z,13.80
2022-09-24T19:09:05.062Z,13.80
2022-09-24T19:11:34.166Z,13.80
2022-09-24T19:14:02.822Z,13.70
2022-09-24T19:16:30.528Z,13.70
2022-09-24T19:18:59.932Z,13.60
2022-09-24T19:21:27.449Z,13.70
2022-09-24T19:23:56.560Z,13.70
2022-09-24T19:26:32.138Z,13.70
2022-09-24T19:28:59.467Z,13.70
2022-09-24T19:31:30.006Z,13.70
2022-09-24T19:33:57.423Z,13.60
2022-09-24T19:36:24.610Z,13.60
2022-09-24T19:38:51.927Z,13.50
2022-09-24T19:41:26.397Z,13.50
2022-09-24T19:43:55.056Z,13.50
2022-09-24T19:46:26.614Z,13.50
2022-09-24T19:48:55.740Z,13.40
2022-09-24T19:51:28.452Z,13.50
2022-09-24T19:53:57.572Z,13.50
2022-09-24T19:56:25.405Z,13.40
2022-09-24T19:58:54.546Z,13.50
2022-09-24T20:01:23.710Z,13.40
2022-09-24T20:03:50.796Z,13.40
2022-09-24T20:06:22.832Z,13.30
2022-09-24T20:08:50.119Z,13.20
2022-09-24T20:11:20.502Z,13.20
2022-09-24T20:13:48.459Z,13.20
2022-09-24T20:16:19.807Z,13.20
2022-09-24T20:18:48.320Z,13.10
2022-09-24T20:21:18.357Z,13.10
2022-09-24T20:23:46.882Z,13.20
2022-09-24T20:26:34.432Z,13.10
2022-09-24T20:29:02.278Z,13.20
2022-09-24T20:31:29.948Z,13.20
2022-09-24T20:33:56.950Z,13.20
2022-09-24T20:36:24.931Z,13.10
2022-09-24T20:38:52.998Z,13.10
2022-09-24T20:41:22.975Z,13.10
2022-09-24T20:43:50.423Z,13.00
2022-09-24T20:46:18.884Z,13.00
2022-09-24T20:48:45.761Z,12.90
2022-09-24T20:51:17.447Z,12.90
2022-09-24T20:53:46.117Z,12.90
2022-09-24T20:56:13.035Z,12.80
2022-09-24T20:58:40.192Z,12.80
2022-09-24T21:01:09.217Z,12.80
2022-09-24T21:03:44.323Z,12.70
2022-09-24T21:06:12.272Z,12.70
2022-09-24T21:08:40.995Z,12.70
2022-09-24T21:11:16.038Z,12.70
2022-09-24T21:13:44.931Z,12.70
2022-09-24T21:16:12.397Z,12.60
2022-09-24T21:18:45.004Z,12.60
2022-09-24T21:21:20.561Z,12.60
2022-09-24T21:23:49.913Z,12.60
2022-09-24T21:26:22.352Z,12.60
2022-09-24T21:28:54.740Z,12.60
2022-09-24T21:31:29.008Z,12.50
2022-09-24T21:33:56.263Z,12.50
2022-09-24T21:36:25.440Z,12.40
2022-09-24T21:38:58.185Z,12.30
2022-09-24T21:41:27.836Z,12.30
2022-09-24T21:43:55.570Z,12.30
2022-09-24T21:46:27.196Z,12.40
2022-09-24T21:48:55.297Z,12.30
2022-09-24T21:51:22.852Z,12.30
2022-09-24T21:53:51.644Z,12.30
2022-09-24T21:56:19.941Z,12.30
2022-09-24T21:58:51.086Z,12.20
2022-09-24T22:01:26.062Z,12.20
2022-09-24T22:03:55.597Z,12.20
2022-09-24T22:06:28.754Z,12.10
2022-09-24T22:08:58.050Z,12.10
2022-09-24T22:11:28.087Z,12.10
2022-09-24T22:13:59.419Z,12.10
2022-09-24T22:16:26.661Z,12.10
2022-09-24T22:18:53.717Z,12.10
2022-09-24T22:21:21.025Z,12.10
2022-09-24T22:23:47.801Z,12.00
2022-09-24T22:26:14.911Z,12.00
2022-09-24T22:28:42.887Z,12.00
2022-09-24T22:31:12.519Z,12.00
2022-09-24T22:33:57.892Z,12.00
2022-09-24T22:36:25.537Z,11.90
2022-09-24T22:38:53.999Z,11.90
2022-09-24T22:41:20.753Z,11.90
2022-09-24T22:43:47.582Z,11.90
2022-09-24T22:46:16.511Z,11.80
2022-09-24T22:48:43.627Z,11.80
2022-09-24T22:51:10.529Z,11.80
2022-09-24T22:53:38.954Z,11.80
2022-09-24T22:56:09.975Z,11.80
2022-09-24T22:58:37.923Z,11.80
2022-09-24T23:01:16.933Z,11.70
